createdAt,value
2019-05-10T00:00:25.572Z,7.83
2019-05-10T00:03:14.704Z,3.67
2019-05-10T00:06:03.545Z,7.10
2019-05-10T00:08:45.636Z,3.15
2019-05-10T00:11:39.791Z,2.50
2019-05-10T00:14:14.021Z,2.27
2019-05-10T00:16:45.037Z,2.10
2019-05-10T00:19:19.862Z,2.50
2019-05-10T00:21:50.497Z,2.80
2019-05-10T00:24:21.340Z,2.83
2019-05-10T00:26:52.161Z,3.00
2019-05-10T00:29:24.304Z,3.17
2019-05-10T00:31:54.916Z,2.98
2019-05-10T00:34:25.660Z,3.10
2019-05-10T00:36:55.613Z,3.10
2019-05-10T00:39:28.272Z,3.02
2019-05-10T00:41:59.758Z,3.20
2019-05-10T00:44:30.518Z,3.10
2019-05-10T00:47:01.265Z,2.80
2019-05-10T00:49:34.112Z,2.85
2019-05-10T00:52:05.130Z,2.75
2019-05-10T00:54:35.822Z,2.58
2019-05-10T00:57:06.616Z,3.00
2019-05-10T00:59:40.426Z,2.80
2019-05-10T01:02:10.527Z,2.55
2019-05-10T01:04:41.320Z,3.25
2019-05-10T01:07:12.041Z,3.42
2019-05-10T01:09:45.425Z,3.40
2019-05-10T01:12:16.063Z,3.60
2019-05-10T01:14:46.793Z,4.85
2019-05-10T01:17:17.646Z,5.15
2019-05-10T01:19:51.396Z,4.75
2019-05-10T01:22:22.016Z,5.12
2019-05-10T01:24:52.683Z,5.37
2019-05-10T01:27:23.335Z,4.95
2019-05-10T01:29:55.067Z,5.40
2019-05-10T01:32:25.799Z,5.15
2019-05-10T01:34:56.588Z,5.30
2019-05-10T01:37:27.137Z,5.95
2019-05-10T01:40:00.472Z,6.53
2019-05-10T01:42:32.096Z,6.37
2019-05-10T01:45:02.844Z,6.22
2019-05-10T01:47:33.597Z,5.15
2019-05-10T01:50:07.068Z,6.20
2019-05-10T01:52:37.720Z,6.35
2019-05-10T01:55:09.241Z,5.40
2019-05-10T01:57:39.787Z,4.60
2019-05-10T02:00:11.665Z,4.92
2019-05-10T02:02:42.522Z,4.72
2019-05-10T02:05:14.127Z,4.70
2019-05-10T02:07:44.388Z,4.83
2019-05-10T02:10:16.458Z,4.78
2019-05-10T02:12:46.977Z,5.35
2019-05-10T02:15:17.322Z,5.17
2019-05-10T02:17:47.972Z,5.28
2019-05-10T02:20:25.199Z,5.37
2019-05-10T02:22:55.796Z,5.83
2019-05-10T02:25:27.084Z,5.78
2019-05-10T02:27:57.154Z,5.83
2019-05-10T02:30:29.996Z,5.20
2019-05-10T02:33:00.630Z,5.55
2019-05-10T02:35:50.113Z,5.42
2019-05-10T02:38:20.880Z,5.30
2019-05-10T02:40:51.615Z,5.40
2019-05-10T02:43:22.541Z,6.75
2019-05-10T02:45:53.269Z,6.47
2019-05-10T02:48:23.877Z,7.78
2019-05-10T02:50:54.548Z,8.75
2019-05-10T02:53:24.964Z,9.23
2019-05-10T02:55:55.255Z,9.95
2019-05-10T02:58:26.523Z,10.13
2019-05-10T03:01:00.284Z,12.55
2019-05-10T03:03:32.652Z,11.88
2019-05-10T03:06:05.966Z,11.33
2019-05-10T03:08:50.721Z,11.57
2019-05-10T03:11:21.559Z,12.58
2019-05-10T03:13:52.840Z,13.35
2019-05-10T03:16:23.882Z,14.25
2019-05-10T03:18:56.752Z,16.95
2019-05-10T03:21:30.718Z,20.57
2019-05-10T03:24:01.448Z,23.07
2019-05-10T03:26:49.585Z,23.57
2019-05-10T03:29:08.011Z,44.42
2019-05-10T03:31:38.649Z,30.92
2019-05-10T03:34:09.181Z,27.90
2019-05-10T03:36:40.688Z,28.67
2019-05-10T03:39:12.593Z,30.08
2019-05-10T03:41:43.646Z,31.70
2019-05-10T03:44:13.853Z,30.00
2019-05-10T03:46:44.524Z,30.95
2019-05-10T03:49:15.819Z,32.80
2019-05-10T03:51:46.572Z,33.23
2019-05-10T03:54:17.314Z,32.60
2019-05-10T03:56:49.085Z,34.98
2019-05-10T03:59:23.017Z,35.17
2019-05-10T04:01:53.083Z,38.45
2019-05-10T04:04:23.384Z,35.20
2019-05-10T04:06:54.291Z,35.80
2019-05-10T04:09:31.921Z,38.33
2019-05-10T04:12:02.062Z,37.80
2019-05-10T04:14:32.033Z,38.38
2019-05-10T04:17:02.795Z,37.17
2019-05-10T04:19:33.829Z,36.33
2019-05-10T04:22:03.987Z,36.55
2019-05-10T04:24:36.583Z,37.95
2019-05-10T04:27:06.480Z,36.13
2019-05-10T04:29:38.306Z,37.20
2019-05-10T04:32:09.006Z,39.05
2019-05-10T04:34:39.621Z,37.45
2019-05-10T04:37:09.889Z,38.08
2019-05-10T04:39:42.200Z,39.40
2019-05-10T04:42:12.389Z,39.23
2019-05-10T04:44:43.407Z,38.50
2019-05-10T04:47:14.149Z,39.90
2019-05-10T04:49:45.311Z,36.13
2019-05-10T04:52:16.154Z,38.65
2019-05-10T04:54:46.130Z,39.53
2019-05-10T04:57:16.405Z,36.53
2019-05-10T04:59:49.134Z,37.25
2019-05-10T05:02:22.239Z,35.50
2019-05-10T05:04:52.086Z,36.30
2019-05-10T05:07:22.282Z,35.50
2019-05-10T05:09:52.392Z,34.27
2019-05-10T05:12:23.020Z,35.83
2019-05-10T05:14:53.578Z,36.55
2019-05-10T05:17:43.511Z,37.85
2019-05-10T05:20:19.865Z,37.90
2019-05-10T05:22:50.056Z,37.98
2019-05-10T05:25:29.440Z,38.50
2019-05-10T05:28:18.513Z,37.40
2019-05-10T05:30:52.556Z,35.73
2019-05-10T05:33:23.202Z,38.33
2019-05-10T05:35:53.864Z,37.00
2019-05-10T05:38:23.979Z,39.33
2019-05-10T05:40:53.928Z,39.20
2019-05-10T05:43:24.604Z,37.50
2019-05-10T05:45:54.861Z,37.20
2019-05-10T05:48:39.524Z,34.05
2019-05-10T05:50:57.214Z,35.68
2019-05-10T05:53:27.374Z,33.98
2019-05-10T05:56:03.661Z,36.15
2019-05-10T05:58:30.788Z,34.73
2019-05-10T06:01:01.357Z,34.88
2019-05-10T06:03:31.521Z,33.18
2019-05-10T06:06:02.196Z,31.50
2019-05-10T06:08:34.099Z,31.17
2019-05-10T06:11:09.065Z,31.25
2019-05-10T06:13:39.468Z,31.07
2019-05-10T06:16:12.776Z,31.25
2019-05-10T06:18:47.127Z,34.23
2019-05-10T06:21:17.976Z,32.93
2019-05-10T06:23:45.303Z,31.42
2019-05-10T06:26:26.412Z,33.13
2019-05-10T06:29:03.710Z,30.00
2019-05-10T06:31:24.321Z,28.87
2019-05-10T06:33:54.971Z,34.90
2019-05-10T06:36:25.722Z,36.38
2019-05-10T06:39:06.785Z,35.08
2019-05-10T06:41:37.632Z,40.05
2019-05-10T06:44:08.381Z,30.15
2019-05-10T06:46:40.007Z,31.95
2019-05-10T06:49:11.782Z,31.77
2019-05-10T06:51:54.544Z,35.08
2019-05-10T06:54:25.210Z,32.70
2019-05-10T06:56:55.851Z,28.77
2019-05-10T06:59:26.653Z,23.00
2019-05-10T07:01:58.298Z,22.75
2019-05-10T07:04:28.981Z,23.18
2019-05-10T07:06:59.589Z,22.30
2019-05-10T07:10:00.515Z,23.70
2019-05-10T07:12:09.380Z,21.70
2019-05-10T07:14:43.036Z,24.70
2019-05-10T07:17:09.242Z,24.98
2019-05-10T07:19:42.026Z,24.05
2019-05-10T07:22:13.283Z,22.55
2019-05-10T07:24:45.592Z,21.20
2019-05-10T07:27:17.899Z,20.05
2019-05-10T07:29:48.691Z,20.72
2019-05-10T07:32:22.089Z,20.20
2019-05-10T07:34:58.975Z,18.42
2019-05-10T07:37:23.812Z,19.85
2019-05-10T07:39:56.034Z,18.73
2019-05-10T07:42:28.131Z,18.15
2019-05-10T07:44:59.908Z,14.33
2019-05-10T07:59:51.101Z,14.05
2019-05-10T08:04:58.472Z,13.65
2019-05-10T08:07:49.323Z,13.85
2019-05-10T08:10:36.665Z,12.47
2019-05-10T08:13:08.496Z,13.55
2019-05-10T08:15:39.345Z,12.47
2019-05-10T08:18:15.260Z,13.28
2019-05-10T08:20:52.147Z,12.25
2019-05-10T08:23:18.072Z,12.82
2019-05-10T08:26:10.929Z,12.43
2019-05-10T08:28:42.204Z,11.05
2019-05-10T08:31:12.467Z,12.65
2019-05-10T08:33:52.801Z,12.68
2019-05-10T08:36:17.586Z,12.78
2019-05-10T08:39:00.572Z,12.45
2019-05-10T08:41:22.318Z,12.18
2019-05-10T08:43:53.337Z,12.20
2019-05-10T08:46:37.226Z,13.05
2019-05-10T08:49:02.117Z,12.13
2019-05-10T08:51:54.173Z,13.80
2019-05-10T08:54:26.404Z,12.58
2019-05-10T08:57:05.334Z,14.10
2019-05-10T08:59:35.518Z,12.68
2019-05-10T09:02:06.175Z,13.35
2019-05-10T09:04:43.681Z,11.88
2019-05-10T09:07:11.723Z,13.43
2019-05-10T09:09:49.915Z,14.58
2019-05-10T09:12:18.173Z,15.53
2019-05-10T09:14:49.015Z,15.32
2019-05-10T09:17:23.457Z,14.35
2019-05-10T09:19:52.181Z,14.80
2019-05-10T09:22:24.013Z,15.05
2019-05-10T09:24:55.101Z,14.13
2019-05-10T09:27:29.083Z,13.62
2019-05-10T09:30:08.156Z,13.60
2019-05-10T09:32:39.930Z,14.78
2019-05-10T09:35:12.543Z,15.68
2019-05-10T09:37:47.686Z,14.90
2019-05-10T09:40:17.715Z,14.98
2019-05-10T09:42:49.012Z,14.93
2019-05-10T09:45:22.190Z,14.58
2019-05-10T09:47:53.795Z,13.40
2019-05-10T09:50:30.594Z,13.50
2019-05-10T09:52:58.622Z,14.10
2019-05-10T09:55:29.598Z,12.93
2019-05-10T09:58:00.311Z,15.45
2019-05-10T10:00:33.356Z,14.78
2019-05-10T10:03:08.195Z,14.18
2019-05-10T10:05:40.282Z,14.80
2019-05-10T10:08:12.817Z,15.32
2019-05-10T10:10:43.679Z,13.40
2019-05-10T10:13:25.572Z,14.00
2019-05-10T10:15:51.854Z,12.28
2019-05-10T10:18:25.050Z,13.98
2019-05-10T10:20:52.919Z,13.43
2019-05-10T10:23:24.741Z,13.58
2019-05-10T10:25:57.978Z,13.72
2019-05-10T10:28:28.713Z,13.38
2019-05-10T10:31:05.266Z,13.10
2019-05-10T10:33:32.221Z,13.20
2019-05-10T10:36:05.494Z,13.18
2019-05-10T10:38:37.053Z,13.28
2019-05-10T10:41:09.036Z,13.88
2019-05-10T10:43:39.761Z,12.58
2019-05-10T11:32:31.583Z,11.80
2019-05-10T11:35:05.440Z,11.38
2019-05-10T11:37:36.941Z,10.30
2019-05-10T11:40:08.098Z,8.73
2019-05-10T11:42:43.803Z,8.78
2019-05-10T11:45:13.993Z,8.75
2019-05-10T11:47:48.109Z,9.73
2019-05-10T11:50:28.809Z,9.48
2019-05-10T11:52:51.481Z,9.95
2019-05-10T11:55:23.754Z,8.55
2019-05-10T11:58:01.933Z,7.20
2019-05-10T12:00:37.375Z,7.37
2019-05-10T12:03:14.877Z,7.35
2019-05-10T12:08:13.389Z,7.20
2019-05-10T12:10:52.648Z,6.72
2019-05-10T12:15:51.766Z,9.30
2019-05-10T12:18:26.668Z,7.72
2019-05-10T12:23:45.813Z,7.42
2019-05-10T12:25:59.930Z,6.70
2019-05-10T12:26:08.471Z,7.00
2019-05-10T12:26:49.987Z,8.03
2019-05-10T12:28:40.921Z,6.87
2019-05-10T12:31:17.026Z,6.37
2019-05-10T12:33:50.610Z,7.78
2019-05-10T12:36:26.008Z,6.95
2019-05-10T12:38:56.167Z,7.03
2019-05-10T12:41:27.138Z,5.67
2019-05-10T12:44:04.048Z,5.92
2019-05-10T12:46:30.685Z,5.47
2019-05-10T12:49:02.106Z,6.83
2019-05-10T12:51:33.889Z,5.70
2019-05-10T12:54:04.542Z,5.90
2019-05-10T12:56:43.933Z,5.30
2019-05-10T12:59:13.484Z,4.20
2019-05-10T13:01:45.469Z,4.85
2019-05-10T13:04:16.973Z,5.42
2019-05-10T13:06:47.885Z,4.67
2019-05-10T13:09:18.585Z,4.60
2019-05-10T13:11:49.222Z,4.60
2019-05-10T13:14:19.995Z,4.70
2019-05-10T13:16:50.657Z,4.12
2019-05-10T13:19:21.704Z,4.35
2019-05-10T13:21:53.681Z,4.85
2019-05-10T13:24:24.751Z,4.00
2019-05-10T13:26:55.387Z,5.75
2019-05-10T13:29:26.166Z,5.30
2019-05-10T13:31:56.924Z,4.15
2019-05-10T13:34:31.654Z,3.72
2019-05-10T13:37:26.965Z,3.90
2019-05-10T13:40:27.064Z,4.72
2019-05-10T13:43:17.279Z,4.25
2019-05-10T13:46:01.679Z,3.70
2019-05-10T13:48:48.453Z,3.42
2019-05-10T13:51:37.255Z,5.22
2019-05-10T13:54:23.201Z,5.53
2019-05-10T13:57:00.670Z,5.15
2019-05-10T14:00:06.425Z,3.95
2019-05-10T14:02:46.799Z,3.30
2019-05-10T14:05:33.932Z,4.00
2019-05-10T14:08:11.685Z,4.17
2019-05-10T14:11:05.983Z,4.20
2019-05-10T14:13:43.028Z,3.87
2019-05-10T14:16:19.463Z,3.83
2019-05-10T14:18:55.486Z,3.52
2019-05-10T14:21:26.531Z,3.70
2019-05-10T14:23:57.201Z,4.22
2019-05-10T14:26:27.858Z,4.10
2019-05-10T14:29:11.213Z,4.25
2019-05-10T14:31:42.214Z,3.75
2019-05-10T14:34:15.298Z,4.00
2019-05-10T14:36:45.348Z,3.87
2019-05-10T14:39:17.306Z,3.87
2019-05-10T14:41:50.701Z,3.47
2019-05-10T14:44:20.111Z,3.65
2019-05-10T14:46:50.650Z,3.80
2019-05-10T14:49:22.516Z,3.85
2019-05-10T14:51:58.797Z,3.83
2019-05-10T14:54:26.591Z,3.83
2019-05-10T14:56:57.319Z,3.60
2019-05-10T14:59:27.956Z,3.62
2019-05-10T15:01:59.825Z,3.35
2019-05-10T15:04:44.337Z,3.60
2019-05-10T15:07:02.803Z,3.10
2019-05-10T15:09:33.795Z,3.55
2019-05-10T15:12:04.478Z,2.92
2019-05-10T15:14:35.105Z,2.85
2019-05-10T15:17:05.773Z,3.12
2019-05-10T15:19:36.495Z,3.47
2019-05-10T15:22:07.304Z,3.62
2019-05-10T15:24:37.956Z,2.80
2019-05-10T15:27:09.689Z,3.17
2019-05-10T15:29:40.400Z,3.12
2019-05-10T15:32:11.121Z,5.08
2019-05-10T15:34:41.889Z,4.75
2019-05-10T15:37:12.634Z,4.60
2019-05-10T15:39:43.405Z,4.12
2019-05-10T15:42:15.210Z,3.87
2019-05-10T15:44:45.882Z,3.83
2019-05-10T15:47:20.489Z,3.50
2019-05-10T15:49:48.900Z,3.30
2019-05-10T15:52:23.015Z,3.10
2019-05-10T15:54:51.814Z,3.42
2019-05-10T15:57:22.454Z,3.10
2019-05-10T15:59:56.580Z,3.37
2019-05-10T16:02:26.134Z,2.90
2019-05-10T16:04:56.837Z,2.77
2019-05-10T16:07:30.137Z,3.90
2019-05-10T16:10:00.827Z,3.25
2019-05-10T16:12:31.469Z,2.92
2019-05-10T16:15:02.149Z,4.10
2019-05-10T16:17:32.896Z,3.50
2019-05-10T16:20:03.818Z,3.42
2019-05-10T16:22:34.890Z,2.60
2019-05-10T16:25:07.522Z,3.00
2019-05-10T16:27:43.512Z,3.20
2019-05-10T16:30:11.972Z,3.80
2019-05-10T16:32:42.828Z,3.83
2019-05-10T16:35:15.627Z,3.65
2019-05-10T16:37:46.417Z,3.87
2019-05-10T16:40:17.245Z,3.42
2019-05-10T16:42:47.901Z,4.00
2019-05-10T16:45:20.294Z,3.55
2019-05-10T16:47:51.003Z,3.58
2019-05-10T16:50:26.103Z,3.50
2019-05-10T16:53:03.350Z,3.60
2019-05-10T16:55:29.200Z,3.27
2019-05-10T16:58:00.840Z,3.25
2019-05-10T17:00:31.538Z,3.65
2019-05-10T17:03:02.073Z,3.87
2019-05-10T17:05:33.879Z,4.92
2019-05-10T17:08:04.615Z,3.60
2019-05-10T17:10:35.487Z,3.50
2019-05-10T17:13:06.715Z,3.42
2019-05-10T17:15:39.729Z,3.50
2019-05-10T17:18:10.561Z,3.27
2019-05-10T17:20:45.380Z,3.50
2019-05-10T17:23:14.268Z,3.60
2019-05-10T17:25:44.797Z,8.55
2019-05-10T17:28:15.430Z,3.47
2019-05-10T17:30:47.383Z,3.80
2019-05-10T17:33:18.014Z,3.85
2019-05-10T17:35:49.747Z,3.30
2019-05-10T17:38:20.562Z,3.10
2019-05-10T17:40:51.275Z,3.65
2019-05-10T17:43:22.839Z,2.92
2019-05-10T17:45:53.685Z,3.45
2019-05-10T17:48:24.326Z,3.50
2019-05-10T17:50:54.880Z,3.37
2019-05-10T17:53:36.410Z,3.75
2019-05-10T17:56:08.245Z,3.70
2019-05-10T17:58:39.023Z,3.25
2019-05-10T18:01:09.671Z,3.77
2019-05-10T18:03:40.445Z,3.52
2019-05-10T18:06:23.055Z,3.30
2019-05-10T18:08:45.956Z,4.15
2019-05-10T18:11:19.303Z,3.85
2019-05-10T18:13:49.975Z,4.03
2019-05-10T18:16:20.630Z,5.42
2019-05-10T18:18:52.729Z,5.28
2019-05-10T18:21:24.221Z,5.65
2019-05-10T18:23:58.228Z,5.40
2019-05-10T18:26:29.080Z,4.67
2019-05-10T18:29:04.766Z,5.15
2019-05-10T18:31:35.482Z,5.67
2019-05-10T18:34:06.148Z,4.55
2019-05-10T18:36:51.162Z,4.75
2019-05-10T18:39:15.681Z,6.80
2019-05-10T18:41:46.672Z,5.85
2019-05-10T18:44:15.957Z,7.12
2019-05-10T18:46:46.867Z,6.42
2019-05-10T18:49:17.518Z,5.00
2019-05-10T18:51:48.044Z,5.67
2019-05-10T18:54:18.864Z,5.55
2019-05-10T18:56:49.608Z,6.92
2019-05-10T18:59:20.381Z,4.53
2019-05-10T19:01:51.023Z,4.40
2019-05-10T19:04:24.378Z,4.30
2019-05-10T19:07:09.382Z,5.62
2019-05-10T19:09:27.436Z,3.83
2019-05-10T19:11:58.322Z,6.40
2019-05-10T19:14:31.275Z,9.70
2019-05-10T19:17:03.851Z,5.80
2019-05-10T19:19:37.150Z,7.75
2019-05-10T19:22:08.782Z,6.55
2019-05-10T19:24:39.255Z,5.05
2019-05-10T19:27:09.911Z,4.72
2019-05-10T19:29:45.552Z,4.12
2019-05-10T19:32:18.320Z,5.00
2019-05-10T19:34:48.326Z,10.95
2019-05-10T19:37:29.818Z,5.83
2019-05-10T19:39:51.694Z,6.17
2019-05-10T19:42:22.224Z,5.97
2019-05-10T19:44:52.872Z,4.87
2019-05-10T19:47:24.604Z,4.90
2019-05-10T19:49:58.087Z,5.60
2019-05-10T19:52:28.639Z,4.70
2019-05-10T19:54:59.573Z,5.65
2019-05-10T19:57:30.174Z,5.87
2019-05-10T20:00:05.193Z,5.40
2019-05-10T20:02:37.546Z,5.03
2019-05-10T20:05:08.611Z,5.00
2019-05-10T20:07:45.694Z,4.28
2019-05-10T20:10:12.610Z,3.72
2019-05-10T20:12:43.366Z,4.53
2019-05-10T20:15:15.827Z,4.97
2019-05-10T20:17:46.544Z,4.80
2019-05-10T20:30:40.875Z,8.13
2019-05-10T20:33:11.980Z,10.05
2019-05-10T20:35:42.715Z,4.78
2019-05-10T20:38:13.509Z,4.95
2019-05-10T20:40:47.868Z,4.72
2019-05-10T20:43:18.643Z,4.72
2019-05-10T20:45:50.895Z,4.30
2019-05-10T20:48:21.582Z,4.10
2019-05-10T20:50:52.357Z,4.72
2019-05-10T20:53:23.009Z,3.45
2019-05-10T20:55:53.542Z,3.98
2019-05-10T20:58:24.308Z,3.55
2019-05-10T21:00:56.408Z,4.03
2019-05-10T21:03:27.130Z,3.72
2019-05-10T21:05:59.234Z,3.98
2019-05-10T21:08:29.924Z,3.12
2019-05-10T21:11:00.677Z,3.50
2019-05-10T21:13:32.532Z,3.67
2019-05-10T21:16:03.165Z,3.50
2019-05-10T21:18:34.325Z,4.15
2019-05-10T21:21:04.855Z,3.70
2019-05-10T21:23:35.622Z,4.45
2019-05-10T21:26:06.264Z,3.92
2019-05-10T21:28:37.937Z,3.98
2019-05-10T21:31:10.711Z,3.33
2019-05-10T21:33:43.319Z,3.62
2019-05-10T21:36:15.498Z,3.87
2019-05-10T21:38:47.443Z,3.87
2019-05-10T21:41:18.076Z,3.65
2019-05-10T21:43:50.338Z,3.17
2019-05-10T21:46:21.099Z,3.00
2019-05-10T21:48:55.772Z,3.15
2019-05-10T21:51:26.426Z,3.67
2019-05-10T21:53:57.225Z,3.37
2019-05-10T21:56:27.929Z,3.22
2019-05-10T21:59:00.840Z,3.05
2019-05-10T22:01:31.594Z,2.92
2019-05-10T22:04:02.610Z,3.15
2019-05-10T22:06:33.454Z,2.98
2019-05-10T22:09:10.186Z,3.35
2019-05-10T22:11:40.956Z,3.30
2019-05-10T22:14:11.685Z,3.17
2019-05-10T22:16:42.319Z,3.17
2019-05-10T22:19:16.992Z,3.60
2019-05-10T22:21:47.741Z,3.47
2019-05-10T22:24:18.626Z,3.27
2019-05-10T22:26:49.183Z,4.12
2019-05-10T22:29:22.996Z,3.20
2019-05-10T22:31:54.627Z,3.60
2019-05-10T22:34:25.295Z,3.42
2019-05-10T22:36:56.238Z,3.67
2019-05-10T22:39:36.385Z,3.62
2019-05-10T22:42:07.015Z,3.40
2019-05-10T22:44:37.681Z,3.40
2019-05-10T22:47:08.220Z,3.45
2019-05-10T22:49:44.776Z,3.50
2019-05-10T22:52:15.422Z,3.45
2019-05-10T22:54:46.058Z,3.58
2019-05-10T22:57:16.720Z,3.52
2019-05-10T22:59:51.345Z,3.40
2019-05-10T23:02:21.989Z,3.80
2019-05-10T23:04:52.831Z,3.47
2019-05-10T23:07:23.662Z,3.37
2019-05-10T23:09:55.498Z,3.52
2019-05-10T23:12:26.141Z,4.40
2019-05-10T23:14:56.809Z,3.75
2019-05-10T23:17:38.214Z,3.75
2019-05-10T23:20:13.331Z,3.83
2019-05-10T23:22:43.878Z,3.15
2019-05-10T23:25:14.741Z,3.30
2019-05-10T23:27:45.368Z,3.45
2019-05-10T23:30:20.297Z,4.22
2019-05-10T23:32:52.001Z,3.70
2019-05-10T23:35:22.657Z,3.67
2019-05-10T23:37:53.277Z,4.08
2019-05-10T23:40:27.444Z,3.65
2019-05-10T23:42:59.667Z,3.72
2019-05-10T23:45:30.422Z,3.35
2019-05-10T23:48:00.966Z,4.08
2019-05-10T23:50:35.374Z,3.85
2019-05-10T23:53:06.001Z,4.42
2019-05-10T23:55:38.144Z,4.15
2019-05-10T23:58:08.778Z,3.62
